sensor_id;sensor_type;location;lat;lon;timestamp;P1;durP1;ratioP1;P2;durP2;ratioP2
58222;SDS011;44020;50.890;15.796;2022-11-15T00:01:06;86.50;;;38.60;;
58222;SDS011;44020;50.890;15.796;2022-11-15T00:03:34;64.80;;;26.80;;
58222;SDS011;44020;50.890;15.796;2022-11-15T00:06:02;82.70;;;36.60;;
58222;SDS011;44020;50.890;15.796;2022-11-15T00:08:31;80.50;;;37.10;;
58222;SDS011;44020;50.890;15.796;2022-11-15T00:11:00;76.10;;;36.50;;
58222;SDS011;44020;50.890;15.796;2022-11-15T00:13:29;69.40;;;34.70;;
58222;SDS011;44020;50.890;15.796;2022-11-15T00:15:57;65.40;;;33.60;;
58222;SDS011;44020;50.890;15.796;2022-11-15T00:18:25;67.60;;;34.40;;
58222;SDS011;44020;50.890;15.796;2022-11-15T00:20:52;68.10;;;33.30;;
58222;SDS011;44020;50.890;15.796;2022-11-15T00:23:19;70.00;;;34.20;;
58222;SDS011;44020;50.890;15.796;2022-11-15T00:25:47;80.50;;;38.40;;
58222;SDS011;44020;50.890;15.796;2022-11-15T00:28:14;104.30;;;46.60;;
58222;SDS011;44020;50.890;15.796;2022-11-15T00:30:41;95.30;;;45.10;;
58222;SDS011;44020;50.890;15.796;2022-11-15T00:33:08;88.90;;;39.60;;
58222;SDS011;44020;50.890;15.796;2022-11-15T00:35:36;85.80;;;40.60;;
58222;SDS011;44020;50.890;15.796;2022-11-15T00:38:03;81.40;;;38.60;;
58222;SDS011;44020;50.890;15.796;2022-11-15T00:40:30;74.70;;;36.70;;
58222;SDS011;44020;50.890;15.796;2022-11-15T00:42:57;66.50;;;31.30;;
58222;SDS011;44020;50.890;15.796;2022-11-15T00:45:25;68.70;;;33.20;;
58222;SDS011;44020;50.890;15.796;2022-11-15T00:47:53;71.30;;;33.60;;
58222;SDS011;44020;50.890;15.796;2022-11-15T00:50:20;84.00;;;38.70;;
58222;SDS011;44020;50.890;15.796;2022-11-15T00:52:47;78.30;;;37.60;;
58222;SDS011;44020;50.890;15.796;2022-11-15T00:55:17;85.10;;;41.70;;
58222;SDS011;44020;50.890;15.796;2022-11-15T00:57:46;83.00;;;40.70;;
58222;SDS011;44020;50.890;15.796;2022-11-15T01:00:13;78.20;;;38.40;;
58222;SDS011;44020;50.890;15.796;2022-11-15T01:02:41;85.80;;;40.40;;
58222;SDS011;44020;50.890;15.796;2022-11-15T01:05:08;85.70;;;39.90;;
58222;SDS011;44020;50.890;15.796;2022-11-15T01:07:35;84.90;;;41.40;;
58222;SDS011;44020;50.890;15.796;2022-11-15T01:10:03;84.60;;;42.10;;
58222;SDS011;44020;50.890;15.796;2022-11-15T01:12:31;82.50;;;38.70;;
58222;SDS011;44020;50.890;15.796;2022-11-15T01:14:59;54.20;;;24.70;;
58222;SDS011;44020;50.890;15.796;2022-11-15T01:17:26;98.10;;;43.50;;
58222;SDS011;44020;50.890;15.796;2022-11-15T01:19:53;108.50;;;48.70;;
58222;SDS011;44020;50.890;15.796;2022-11-15T01:22:20;110.90;;;50.70;;
58222;SDS011;44020;50.890;15.796;2022-11-15T01:24:50;102.60;;;47.40;;
58222;SDS011;44020;50.890;15.796;2022-11-15T01:27:18;86.00;;;39.60;;
58222;SDS011;44020;50.890;15.796;2022-11-15T01:29:45;92.50;;;42.90;;
58222;SDS011;44020;50.890;15.796;2022-11-15T01:32:12;91.50;;;43.40;;
58222;SDS011;44020;50.890;15.796;2022-11-15T01:34:39;98.10;;;45.50;;
58222;SDS011;44020;50.890;15.796;2022-11-15T01:37:06;98.90;;;44.60;;
58222;SDS011;44020;50.890;15.796;2022-11-15T01:39:33;88.50;;;41.90;;
58222;SDS011;44020;50.890;15.796;2022-11-15T01:42:00;88.60;;;43.30;;
58222;SDS011;44020;50.890;15.796;2022-11-15T01:46:58;98.40;;;44.50;;
58222;SDS011;44020;50.890;15.796;2022-11-15T01:49:29;106.20;;;46.90;;
58222;SDS011;44020;50.890;15.796;2022-11-15T01:52:00;115.10;;;50.00;;
58222;SDS011;44020;50.890;15.796;2022-11-15T01:54:29;100.90;;;48.30;;
58222;SDS011;44020;50.890;15.796;2022-11-15T01:56:58;109.40;;;48.50;;
58222;SDS011;44020;50.890;15.796;2022-11-15T01:59:28;102.30;;;46.70;;
58222;SDS011;44020;50.890;15.796;2022-11-15T02:01:56;105.40;;;46.60;;
58222;SDS011;44020;50.890;15.796;2022-11-15T02:04:27;108.10;;;49.50;;
58222;SDS011;44020;50.890;15.796;2022-11-15T02:06:57;107.20;;;48.90;;
58222;SDS011;44020;50.890;15.796;2022-11-15T02:09:25;99.50;;;45.90;;
58222;SDS011;44020;50.890;15.796;2022-11-15T02:11:52;97.40;;;46.50;;
58222;SDS011;44020;50.890;15.796;2022-11-15T02:14:22;88.80;;;43.40;;
58222;SDS011;44020;50.890;15.796;2022-11-15T02:32:42;79.50;;;38.70;;
58222;SDS011;44020;50.890;15.796;2022-11-15T02:37:52;77.30;;;37.00;;
58222;SDS011;44020;50.890;15.796;2022-11-15T02:40:28;73.60;;;36.40;;
58222;SDS011;44020;50.890;15.796;2022-11-15T02:43:09;71.90;;;35.30;;
58222;SDS011;44020;50.890;15.796;2022-11-15T02:46:02;77.10;;;35.60;;
58222;SDS011;44020;50.890;15.796;2022-11-15T02:48:36;69.70;;;34.10;;
58222;SDS011;44020;50.890;15.796;2022-11-15T02:51:05;63.70;;;31.40;;
58222;SDS011;44020;50.890;15.796;2022-11-15T02:53:32;63.50;;;31.70;;
58222;SDS011;44020;50.890;15.796;2022-11-15T02:56:00;63.20;;;32.00;;
58222;SDS011;44020;50.890;15.796;2022-11-15T03:12:25;73.80;;;33.10;;
58222;SDS011;44020;50.890;15.796;2022-11-15T03:15:05;72.00;;;31.70;;
58222;SDS011;44020;50.890;15.796;2022-11-15T03:17:59;65.50;;;32.40;;
58222;SDS011;44020;50.890;15.796;2022-11-15T03:20:24;87.00;;;36.50;;
58222;SDS011;44020;50.890;15.796;2022-11-15T03:22:54;70.70;;;33.40;;
58222;SDS011;44020;50.890;15.796;2022-11-15T03:25:25;85.50;;;36.40;;
58222;SDS011;44020;50.890;15.796;2022-11-15T03:27:55;79.20;;;36.30;;
58222;SDS011;44020;50.890;15.796;2022-11-15T03:30:25;81.30;;;36.60;;
58222;SDS011;44020;50.890;15.796;2022-11-15T03:32:56;71.20;;;34.90;;
58222;SDS011;44020;50.890;15.796;2022-11-15T03:35:27;64.10;;;33.00;;
58222;SDS011;44020;50.890;15.796;2022-11-15T03:38:43;71.90;;;32.40;;
58222;SDS011;44020;50.890;15.796;2022-11-15T03:41:00;59.40;;;29.20;;
58222;SDS011;44020;50.890;15.796;2022-11-15T03:43:41;50.50;;;26.60;;
58222;SDS011;44020;50.890;15.796;2022-11-15T03:46:14;55.30;;;25.90;;
58222;SDS011;44020;50.890;15.796;2022-11-15T03:49:44;48.90;;;24.60;;
58222;SDS011;44020;50.890;15.796;2022-11-15T03:52:00;50.30;;;23.00;;
58222;SDS011;44020;50.890;15.796;2022-11-15T03:54:29;52.80;;;26.00;;
58222;SDS011;44020;50.890;15.796;2022-11-15T03:56:56;50.30;;;25.10;;
58222;SDS011;44020;50.890;15.796;2022-11-15T03:59:24;51.90;;;25.30;;
58222;SDS011;44020;50.890;15.796;2022-11-15T04:01:51;53.10;;;25.20;;
58222;SDS011;44020;50.890;15.796;2022-11-15T04:04:18;45.30;;;23.20;;
58222;SDS011;44020;50.890;15.796;2022-11-15T04:06:45;45.50;;;23.00;;
58222;SDS011;44020;50.890;15.796;2022-11-15T04:09:12;48.20;;;23.90;;
58222;SDS011;44020;50.890;15.796;2022-11-15T04:11:40;50.60;;;24.10;;
58222;SDS011;44020;50.890;15.796;2022-11-15T04:14:07;52.10;;;24.50;;
58222;SDS011;44020;50.890;15.796;2022-11-15T04:16:34;51.90;;;25.30;;
58222;SDS011;44020;50.890;15.796;2022-11-15T04:19:01;54.80;;;25.60;;
58222;SDS011;44020;50.890;15.796;2022-11-15T04:21:47;52.70;;;24.90;;
58222;SDS011;44020;50.890;15.796;2022-11-15T04:24:33;52.80;;;22.10;;
58222;SDS011;44020;50.890;15.796;2022-11-15T04:27:00;53.10;;;25.30;;
58222;SDS011;44020;50.890;15.796;2022-11-15T04:29:27;55.50;;;26.00;;
58222;SDS011;44020;50.890;15.796;2022-11-15T04:32:02;50.40;;;24.60;;
58222;SDS011;44020;50.890;15.796;2022-11-15T04:34:30;53.60;;;25.10;;
58222;SDS011;44020;50.890;15.796;2022-11-15T04:36:58;85.60;;;34.40;;
58222;SDS011;44020;50.890;15.796;2022-11-15T04:39:43;81.20;;;33.30;;
58222;SDS011;44020;50.890;15.796;2022-11-15T04:42:10;75.10;;;33.20;;
58222;SDS011;44020;50.890;15.796;2022-11-15T04:44:37;68.40;;;30.00;;
58222;SDS011;44020;50.890;15.796;2022-11-15T04:47:05;55.60;;;24.20;;
58222;SDS011;44020;50.890;15.796;2022-11-15T04:49:32;43.20;;;21.80;;
58222;SDS011;44020;50.890;15.796;2022-11-15T04:51:59;42.00;;;20.50;;
58222;SDS011;44020;50.890;15.796;2022-11-15T04:54:26;47.60;;;20.80;;
58222;SDS011;44020;50.890;15.796;2022-11-15T04:56:54;41.10;;;21.10;;
58222;SDS011;44020;50.890;15.796;2022-11-15T04:59:21;53.20;;;26.40;;
58222;SDS011;44020;50.890;15.796;2022-11-15T05:01:48;48.10;;;24.90;;
58222;SDS011;44020;50.890;15.796;2022-11-15T05:04:16;52.30;;;25.10;;
58222;SDS011;44020;50.890;15.796;2022-11-15T05:06:47;46.80;;;24.40;;
58222;SDS011;44020;50.890;15.796;2022-11-15T05:09:16;66.70;;;31.60;;
58222;SDS011;44020;50.890;15.796;2022-11-15T05:11:44;88.20;;;40.90;;
58222;SDS011;44020;50.890;15.796;2022-11-15T05:14:12;115.80;;;49.70;;
58222;SDS011;44020;50.890;15.796;2022-11-15T05:16:40;86.50;;;37.30;;
58222;SDS011;44020;50.890;15.796;2022-11-15T05:19:07;63.30;;;31.50;;
58222;SDS011;44020;50.890;15.796;2022-11-15T05:21:35;53.00;;;26.50;;
58222;SDS011;44020;50.890;15.796;2022-11-15T05:24:03;49.00;;;24.40;;
58222;SDS011;44020;50.890;15.796;2022-11-15T05:26:31;47.10;;;24.40;;
58222;SDS011;44020;50.890;15.796;2022-11-15T05:28:58;42.40;;;22.30;;
58222;SDS011;44020;50.890;15.796;2022-11-15T05:31:26;41.20;;;21.50;;
58222;SDS011;44020;50.890;15.796;2022-11-15T05:33:55;49.20;;;24.30;;
58222;SDS011;44020;50.890;15.796;2022-11-15T05:39:05;41.00;;;20.70;;
58222;SDS011;44020;50.890;15.796;2022-11-15T05:41:35;51.00;;;23.40;;
58222;SDS011;44020;50.890;15.796;2022-11-15T05:44:06;47.70;;;23.90;;
58222;SDS011;44020;50.890;15.796;2022-11-15T05:46:35;48.90;;;23.80;;
58222;SDS011;44020;50.890;15.796;2022-11-15T05:49:06;52.30;;;23.90;;
58222;SDS011;44020;50.890;15.796;2022-11-15T05:51:38;49.70;;;23.50;;
58222;SDS011;44020;50.890;15.796;2022-11-15T05:54:08;57.40;;;26.00;;
58222;SDS011;44020;50.890;15.796;2022-11-15T05:56:36;53.00;;;25.70;;
58222;SDS011;44020;50.890;15.796;2022-11-15T05:59:03;45.40;;;22.70;;
58222;SDS011;44020;50.890;15.796;2022-11-15T06:01:30;52.80;;;25.30;;
58222;SDS011;44020;50.890;15.796;2022-11-15T06:03:58;56.70;;;26.10;;
58222;SDS011;44020;50.890;15.796;2022-11-15T06:06:26;52.30;;;26.40;;
58222;SDS011;44020;50.890;15.796;2022-11-15T06:08:55;61.80;;;27.80;;
58222;SDS011;44020;50.890;15.796;2022-11-15T06:11:22;59.20;;;27.50;;
58222;SDS011;44020;50.890;15.796;2022-11-15T06:13:49;54.70;;;25.00;;
58222;SDS011;44020;50.890;15.796;2022-11-15T06:16:16;57.10;;;27.70;;
58222;SDS011;44020;50.890;15.796;2022-11-15T06:18:44;58.90;;;27.60;;
58222;SDS011;44020;50.890;15.796;2022-11-15T06:21:11;51.80;;;25.40;;
58222;SDS011;44020;50.890;15.796;2022-11-15T06:23:38;58.20;;;27.40;;
58222;SDS011;44020;50.890;15.796;2022-11-15T06:26:05;57.30;;;28.00;;
58222;SDS011;44020;50.890;15.796;2022-11-15T06:28:32;58.70;;;26.10;;
58222;SDS011;44020;50.890;15.796;2022-11-15T06:31:07;49.50;;;24.60;;
58222;SDS011;44020;50.890;15.796;2022-11-15T06:33:38;57.20;;;27.40;;
58222;SDS011;44020;50.890;15.796;2022-11-15T06:36:10;58.50;;;26.70;;
58222;SDS011;44020;50.890;15.796;2022-11-15T06:38:40;55.20;;;26.90;;
58222;SDS011;44020;50.890;15.796;2022-11-15T06:41:08;58.40;;;27.40;;
58222;SDS011;44020;50.890;15.796;2022-11-15T06:43:37;55.10;;;25.10;;
58222;SDS011;44020;50.890;15.796;2022-11-15T06:46:06;55.20;;;24.40;;
58222;SDS011;44020;50.890;15.796;2022-11-15T06:48:34;54.80;;;25.80;;
58222;SDS011;44020;50.890;15.796;2022-11-15T06:51:03;58.70;;;25.60;;
58222;SDS011;44020;50.890;15.796;2022-11-15T06:53:31;57.90;;;25.10;;
58222;SDS011;44020;50.890;15.796;2022-11-15T06:56:02;58.50;;;26.40;;
58222;SDS011;44020;50.890;15.796;2022-11-15T06:58:31;51.40;;;24.90;;
58222;SDS011;44020;50.890;15.796;2022-11-15T07:01:00;54.20;;;24.00;;
58222;SDS011;44020;50.890;15.796;2022-11-15T07:03:29;48.60;;;23.40;;
58222;SDS011;44020;50.890;15.796;2022-11-15T07:05:56;58.70;;;26.90;;
58222;SDS011;44020;50.890;15.796;2022-11-15T07:08:26;54.60;;;24.90;;
58222;SDS011;44020;50.890;15.796;2022-11-15T07:10:57;50.30;;;24.70;;
58222;SDS011;44020;50.890;15.796;2022-11-15T07:13:26;63.80;;;26.20;;
58222;SDS011;44020;50.890;15.796;2022-11-15T07:15:54;54.10;;;25.30;;
58222;SDS011;44020;50.890;15.796;2022-11-15T07:18:21;61.80;;;27.30;;
58222;SDS011;44020;50.890;15.796;2022-11-15T07:20:48;58.10;;;26.10;;
58222;SDS011;44020;50.890;15.796;2022-11-15T07:23:15;58.50;;;26.70;;
58222;SDS011;44020;50.890;15.796;2022-11-15T07:25:42;64.50;;;28.60;;
58222;SDS011;44020;50.890;15.796;2022-11-15T07:28:09;58.80;;;28.40;;
58222;SDS011;44020;50.890;15.796;2022-11-15T07:30:36;65.10;;;29.90;;
58222;SDS011;44020;50.890;15.796;2022-11-15T07:33:03;66.20;;;30.40;;
58222;SDS011;44020;50.890;15.796;2022-11-15T07:35:30;75.70;;;31.00;;
58222;SDS011;44020;50.890;15.796;2022-11-15T07:37:58;74.20;;;32.60;;
58222;SDS011;44020;50.890;15.796;2022-11-15T07:40:27;62.10;;;30.20;;
58222;SDS011;44020;50.890;15.796;2022-11-15T07:42:59;62.80;;;28.80;;
58222;SDS011;44020;50.890;15.796;2022-11-15T07:45:30;56.80;;;27.20;;
58222;SDS011;44020;50.890;15.796;2022-11-15T07:48:01;57.40;;;25.60;;
58222;SDS011;44020;50.890;15.796;2022-11-15T07:50:28;53.70;;;26.10;;
58222;SDS011;44020;50.890;15.796;2022-11-15T07:52:58;56.50;;;27.40;;
58222;SDS011;44020;50.890;15.796;2022-11-15T07:55:27;52.30;;;25.40;;
58222;SDS011;44020;50.890;15.796;2022-11-15T08:00:33;55.30;;;27.50;;
58222;SDS011;44020;50.890;15.796;2022-11-15T08:03:11;60.80;;;28.80;;
58222;SDS011;44020;50.890;15.796;2022-11-15T08:05:40;66.50;;;30.40;;
58222;SDS011;44020;50.890;15.796;2022-11-15T08:08:10;58.90;;;29.20;;
58222;SDS011;44020;50.890;15.796;2022-11-15T08:10:37;57.00;;;28.70;;
58222;SDS011;44020;50.890;15.796;2022-11-15T08:13:05;57.30;;;27.00;;
58222;SDS011;44020;50.890;15.796;2022-11-15T08:15:34;56.60;;;26.70;;
58222;SDS011;44020;50.890;15.796;2022-11-15T08:18:04;52.10;;;25.90;;
58222;SDS011;44020;50.890;15.796;2022-11-15T08:20:32;49.80;;;25.80;;
58222;SDS011;44020;50.890;15.796;2022-11-15T08:23:01;51.20;;;25.50;;
58222;SDS011;44020;50.890;15.796;2022-11-15T08:25:29;49.40;;;24.40;;
58222;SDS011;44020;50.890;15.796;2022-11-15T08:28:02;47.80;;;24.40;;
58222;SDS011;44020;50.890;15.796;2022-11-15T08:30:34;47.30;;;24.00;;
58222;SDS011;44020;50.890;15.796;2022-11-15T08:33:03;50.10;;;24.50;;
58222;SDS011;44020;50.890;15.796;2022-11-15T08:35:31;48.10;;;25.10;;
58222;SDS011;44020;50.890;15.796;2022-11-15T08:37:58;43.70;;;22.80;;
58222;SDS011;44020;50.890;15.796;2022-11-15T08:40:25;55.40;;;25.60;;
58222;SDS011;44020;50.890;15.796;2022-11-15T08:42:53;47.40;;;25.40;;
58222;SDS011;44020;50.890;15.796;2022-11-15T08:45:20;52.70;;;26.70;;
58222;SDS011;44020;50.890;15.796;2022-11-15T08:47:47;49.70;;;26.60;;
58222;SDS011;44020;50.890;15.796;2022-11-15T08:50:15;60.20;;;28.50;;
58222;SDS011;44020;50.890;15.796;2022-11-15T08:52:42;59.30;;;30.80;;
58222;SDS011;44020;50.890;15.796;2022-11-15T08:55:09;59.70;;;31.20;;
58222;SDS011;44020;50.890;15.796;2022-11-15T08:57:36;63.90;;;32.30;;
58222;SDS011;44020;50.890;15.796;2022-11-15T09:00:03;53.40;;;29.00;;
58222;SDS011;44020;50.890;15.796;2022-11-15T09:02:31;51.60;;;27.90;;
58222;SDS011;44020;50.890;15.796;2022-11-15T09:04:58;50.60;;;26.80;;
58222;SDS011;44020;50.890;15.796;2022-11-15T09:07:25;49.90;;;25.20;;
58222;SDS011;44020;50.890;15.796;2022-11-15T09:09:52;46.10;;;24.10;;
58222;SDS011;44020;50.890;15.796;2022-11-15T09:12:19;39.40;;;22.30;;
58222;SDS011;44020;50.890;15.796;2022-11-15T09:14:46;40.80;;;22.10;;
58222;SDS011;44020;50.890;15.796;2022-11-15T09:17:13;39.90;;;21.40;;
58222;SDS011;44020;50.890;15.796;2022-11-15T09:19:40;41.80;;;22.70;;
58222;SDS011;44020;50.890;15.796;2022-11-15T09:22:07;38.50;;;22.70;;
58222;SDS011;44020;50.890;15.796;2022-11-15T09:24:35;44.30;;;21.60;;
58222;SDS011;44020;50.890;15.796;2022-11-15T09:27:02;41.60;;;22.00;;
58222;SDS011;44020;50.890;15.796;2022-11-15T09:29:29;38.30;;;20.80;;
58222;SDS011;44020;50.890;15.796;2022-11-15T09:31:56;39.20;;;20.50;;
58222;SDS011;44020;50.890;15.796;2022-11-15T09:34:23;38.30;;;20.10;;
58222;SDS011;44020;50.890;15.796;2022-11-15T09:36:50;40.30;;;21.40;;
58222;SDS011;44020;50.890;15.796;2022-11-15T09:39:17;38.20;;;21.10;;
58222;SDS011;44020;50.890;15.796;2022-11-15T09:50:19;36.50;;;20.20;;
58222;SDS011;44020;50.890;15.796;2022-11-15T09:53:10;35.50;;;20.00;;
58222;SDS011;44020;50.890;15.796;2022-11-15T09:55:50;38.40;;;20.50;;
58222;SDS011;44020;50.890;15.796;2022-11-15T10:04:09;40.00;;;20.70;;
58222;SDS011;44020;50.890;15.796;2022-11-15T10:06:38;38.00;;;21.00;;
58222;SDS011;44020;50.890;15.796;2022-11-15T10:09:14;33.70;;;19.10;;
58222;SDS011;44020;50.890;15.796;2022-11-15T10:14:17;32.70;;;18.90;;
58222;SDS011;44020;50.890;15.796;2022-11-15T10:19:44;35.10;;;19.00;;
58222;SDS011;44020;50.890;15.796;2022-11-15T10:27:35;25.60;;;15.10;;
58222;SDS011;44020;50.890;15.796;2022-11-15T10:30:03;27.30;;;15.10;;
58222;SDS011;44020;50.890;15.796;2022-11-15T10:32:36;22.70;;;14.50;;
58222;SDS011;44020;50.890;15.796;2022-11-15T10:35:37;24.40;;;13.50;;
58222;SDS011;44020;50.890;15.796;2022-11-15T10:38:07;25.70;;;13.70;;
58222;SDS011;44020;50.890;15.796;2022-11-15T10:40:35;23.70;;;12.90;;
58222;SDS011;44020;50.890;15.796;2022-11-15T10:45:43;21.80;;;13.00;;
58222;SDS011;44020;50.890;15.796;2022-11-15T10:50:39;24.60;;;14.30;;
58222;SDS011;44020;50.890;15.796;2022-11-15T10:53:12;22.00;;;13.80;;
58222;SDS011;44020;50.890;15.796;2022-11-15T10:55:46;20.90;;;13.40;;
58222;SDS011;44020;50.890;15.796;2022-11-15T11:01:24;20.90;;;13.20;;
58222;SDS011;44020;50.890;15.796;2022-11-15T11:04:00;20.70;;;12.70;;
58222;SDS011;44020;50.890;15.796;2022-11-15T11:06:54;22.90;;;14.00;;
58222;SDS011;44020;50.890;15.796;2022-11-15T11:09:36;22.00;;;13.30;;
58222;SDS011;44020;50.890;15.796;2022-11-15T11:12:06;21.80;;;13.50;;
58222;SDS011;44020;50.890;15.796;2022-11-15T11:14:38;21.40;;;13.80;;
58222;SDS011;44020;50.890;15.796;2022-11-15T11:28:33;21.00;;;12.90;;
58222;SDS011;44020;50.890;15.796;2022-11-15T11:31:23;21.70;;;12.40;;
58222;SDS011;44020;50.890;15.796;2022-11-15T11:34:13;21.40;;;13.50;;
58222;SDS011;44020;50.890;15.796;2022-11-15T11:36:51;21.70;;;13.50;;
58222;SDS011;44020;50.890;15.796;2022-11-15T11:45:15;17.10;;;11.70;;
58222;SDS011;44020;50.890;15.796;2022-11-15T11:48:09;19.40;;;11.70;;
58222;SDS011;44020;50.890;15.796;2022-11-15T11:51:05;17.70;;;11.20;;
58222;SDS011;44020;50.890;15.796;2022-11-15T11:53:46;18.90;;;11.40;;
58222;SDS011;44020;50.890;15.796;2022-11-15T11:56:29;17.10;;;11.00;;
58222;SDS011;44020;50.890;15.796;2022-11-15T12:02:01;17.00;;;10.60;;
58222;SDS011;44020;50.890;15.796;2022-11-15T12:05:09;18.40;;;11.90;;
58222;SDS011;44020;50.890;15.796;2022-11-15T12:07:43;18.90;;;12.40;;
58222;SDS011;44020;50.890;15.796;2022-11-15T12:10:23;18.90;;;11.70;;
58222;SDS011;44020;50.890;15.796;2022-11-15T12:12:58;17.30;;;11.40;;
58222;SDS011;44020;50.890;15.796;2022-11-15T12:15:47;22.20;;;11.20;;
58222;SDS011;44020;50.890;15.796;2022-11-15T12:18:23;18.90;;;12.40;;
58222;SDS011;44020;50.890;15.796;2022-11-15T12:21:02;19.10;;;12.40;;
58222;SDS011;44020;50.890;15.796;2022-11-15T12:23:38;19.90;;;12.50;;
58222;SDS011;44020;50.890;15.796;2022-11-15T12:26:22;23.30;;;12.70;;
58222;SDS011;44020;50.890;15.796;2022-11-15T12:28:59;19.20;;;12.50;;
58222;SDS011;44020;50.890;15.796;2022-11-15T12:34:01;19.00;;;12.60;;
58222;SDS011;44020;50.890;15.796;2022-11-15T12:36:36;22.90;;;14.10;;
58222;SDS011;44020;50.890;15.796;2022-11-15T12:39:10;25.50;;;15.10;;
58222;SDS011;44020;50.890;15.796;2022-11-15T12:41:40;25.00;;;14.50;;
58222;SDS011;44020;50.890;15.796;2022-11-15T13:02:23;24.70;;;16.20;;
58222;SDS011;44020;50.890;15.796;2022-11-15T13:05:25;25.90;;;16.30;;
58222;SDS011;44020;50.890;15.796;2022-11-15T13:08:32;26.30;;;16.70;;
58222;SDS011;44020;50.890;15.796;2022-11-15T13:17:01;28.90;;;16.80;;
58222;SDS011;44020;50.890;15.796;2022-11-15T13:19:29;26.70;;;17.10;;
58222;SDS011;44020;50.890;15.796;2022-11-15T13:21:57;28.60;;;17.40;;
58222;SDS011;44020;50.890;15.796;2022-11-15T13:24:42;27.30;;;17.10;;
58222;SDS011;44020;50.890;15.796;2022-11-15T13:27:14;27.90;;;17.30;;
58222;SDS011;44020;50.890;15.796;2022-11-15T13:29:45;24.90;;;15.90;;
58222;SDS011;44020;50.890;15.796;2022-11-15T13:32:13;26.90;;;17.50;;
58222;SDS011;44020;50.890;15.796;2022-11-15T13:34:48;28.00;;;17.70;;
58222;SDS011;44020;50.890;15.796;2022-11-15T13:39:46;24.90;;;16.10;;
58222;SDS011;44020;50.890;15.796;2022-11-15T13:42:16;24.60;;;16.00;;
58222;SDS011;44020;50.890;15.796;2022-11-15T13:44:58;24.40;;;16.60;;
58222;SDS011;44020;50.890;15.796;2022-11-15T13:47:27;26.00;;;15.80;;
58222;SDS011;44020;50.890;15.796;2022-11-15T13:49:56;26.90;;;17.20;;
58222;SDS011;44020;50.890;15.796;2022-11-15T13:52:30;27.40;;;18.00;;
58222;SDS011;44020;50.890;15.796;2022-11-15T13:55:11;28.40;;;18.30;;
58222;SDS011;44020;50.890;15.796;2022-11-15T13:57:42;28.40;;;19.40;;
58222;SDS011;44020;50.890;15.796;2022-11-15T14:02:49;31.20;;;20.80;;
58222;SDS011;44020;50.890;15.796;2022-11-15T14:08:20;29.70;;;19.50;;
58222;SDS011;44020;50.890;15.796;2022-11-15T14:11:05;33.60;;;20.50;;
58222;SDS011;44020;50.890;15.796;2022-11-15T14:13:59;33.50;;;21.20;;
58222;SDS011;44020;50.890;15.796;2022-11-15T14:19:05;32.90;;;21.50;;
58222;SDS011;44020;50.890;15.796;2022-11-15T14:21:36;34.20;;;20.70;;
58222;SDS011;44020;50.890;15.796;2022-11-15T14:26:44;35.60;;;22.90;;
58222;SDS011;44020;50.890;15.796;2022-11-15T14:29:30;37.10;;;23.70;;
58222;SDS011;44020;50.890;15.796;2022-11-15T14:34:56;38.40;;;22.90;;
58222;SDS011;44020;50.890;15.796;2022-11-15T14:37:29;33.50;;;20.40;;
58222;SDS011;44020;50.890;15.796;2022-11-15T14:40:05;36.00;;;22.00;;
58222;SDS011;44020;50.890;15.796;2022-11-15T14:42:32;61.90;;;34.60;;
58222;SDS011;44020;50.890;15.796;2022-11-15T14:45:00;61.20;;;37.10;;
58222;SDS011;44020;50.890;15.796;2022-11-15T14:47:27;55.20;;;32.20;;
58222;SDS011;44020;50.890;15.796;2022-11-15T14:49:54;48.20;;;27.50;;
58222;SDS011;44020;50.890;15.796;2022-11-15T14:52:28;38.00;;;24.90;;
58222;SDS011;44020;50.890;15.796;2022-11-15T14:55:00;37.60;;;23.00;;
58222;SDS011;44020;50.890;15.796;2022-11-15T14:57:29;37.60;;;23.30;;
58222;SDS011;44020;50.890;15.796;2022-11-15T14:59:56;36.50;;;22.00;;
58222;SDS011;44020;50.890;15.796;2022-11-15T15:02:24;39.80;;;23.10;;
58222;SDS011;44020;50.890;15.796;2022-11-15T15:04:53;40.90;;;23.50;;
58222;SDS011;44020;50.890;15.796;2022-11-15T15:07:21;39.50;;;23.30;;
58222;SDS011;44020;50.890;15.796;2022-11-15T15:09:49;39.60;;;22.70;;
58222;SDS011;44020;50.890;15.796;2022-11-15T15:14:48;46.50;;;27.60;;
58222;SDS011;44020;50.890;15.796;2022-11-15T15:17:17;44.90;;;26.60;;
58222;SDS011;44020;50.890;15.796;2022-11-15T15:19:44;45.10;;;26.30;;
58222;SDS011;44020;50.890;15.796;2022-11-15T15:22:13;50.10;;;28.10;;
58222;SDS011;44020;50.890;15.796;2022-11-15T15:24:43;49.80;;;29.80;;
58222;SDS011;44020;50.890;15.796;2022-11-15T15:27:11;53.60;;;29.90;;
58222;SDS011;44020;50.890;15.796;2022-11-15T15:29:39;53.60;;;30.60;;
58222;SDS011;44020;50.890;15.796;2022-11-15T15:32:07;55.40;;;32.00;;
58222;SDS011;44020;50.890;15.796;2022-11-15T15:34:35;58.30;;;35.10;;
58222;SDS011;44020;50.890;15.796;2022-11-15T15:37:06;52.90;;;31.30;;
58222;SDS011;44020;50.890;15.796;2022-11-15T15:39:35;54.40;;;31.60;;
58222;SDS011;44020;50.890;15.796;2022-11-15T15:42:02;58.00;;;30.30;;
58222;SDS011;44020;50.890;15.796;2022-11-15T15:44:30;56.90;;;32.10;;
58222;SDS011;44020;50.890;15.796;2022-11-15T15:46:57;56.20;;;31.80;;
58222;SDS011;44020;50.890;15.796;2022-11-15T15:49:25;57.70;;;32.40;;
58222;SDS011;44020;50.890;15.796;2022-11-15T15:51:52;49.90;;;30.10;;
58222;SDS011;44020;50.890;15.796;2022-11-15T15:54:19;49.80;;;29.90;;
58222;SDS011;44020;50.890;15.796;2022-11-15T15:56:46;52.30;;;32.50;;
58222;SDS011;44020;50.890;15.796;2022-11-15T15:59:13;49.50;;;30.60;;
58222;SDS011;44020;50.890;15.796;2022-11-15T16:01:40;48.80;;;30.00;;
58222;SDS011;44020;50.890;15.796;2022-11-15T16:04:07;48.90;;;29.30;;
58222;SDS011;44020;50.890;15.796;2022-11-15T16:06:35;79.60;;;43.00;;
58222;SDS011;44020;50.890;15.796;2022-11-15T16:09:05;68.20;;;38.40;;
58222;SDS011;44020;50.890;15.796;2022-11-15T16:11:35;72.40;;;37.10;;
58222;SDS011;44020;50.890;15.796;2022-11-15T16:14:02;54.80;;;29.80;;
58222;SDS011;44020;50.890;15.796;2022-11-15T16:16:29;49.60;;;28.10;;
58222;SDS011;44020;50.890;15.796;2022-11-15T16:18:56;50.10;;;29.90;;
58222;SDS011;44020;50.890;15.796;2022-11-15T16:21:23;50.40;;;27.90;;
58222;SDS011;44020;50.890;15.796;2022-11-15T16:23:50;73.10;;;37.00;;
58222;SDS011;44020;50.890;15.796;2022-11-15T16:26:20;75.80;;;36.50;;
58222;SDS011;44020;50.890;15.796;2022-11-15T16:28:50;82.90;;;40.40;;
58222;SDS011;44020;50.890;15.796;2022-11-15T16:31:18;89.80;;;42.00;;
58222;SDS011;44020;50.890;15.796;2022-11-15T16:33:47;75.80;;;37.70;;
58222;SDS011;44020;50.890;15.796;2022-11-15T16:36:25;51.80;;;28.70;;
58222;SDS011;44020;50.890;15.796;2022-11-15T16:38:53;53.70;;;27.30;;
58222;SDS011;44020;50.890;15.796;2022-11-15T16:41:20;50.40;;;27.10;;
58222;SDS011;44020;50.890;15.796;2022-11-15T16:43:47;69.80;;;33.30;;
58222;SDS011;44020;50.890;15.796;2022-11-15T16:46:19;65.60;;;33.50;;
58222;SDS011;44020;50.890;15.796;2022-11-15T16:48:48;71.90;;;35.40;;